Terminal Aerodrome Forecast
Issued by NWS

Home | Current Version | Previous Version | Graphics & Text | Print | Product List | Glossary On
Versions: 1 2 3 4 5 6 7 8 9 10 11 12 13 14 15 16 17 18 19 20 21 22 23
000
FTUS43 KGRB 232337
TAFATW
TAF
KATW 232337Z 2400/2424 14012G20KT P6SM VCSH OVC035 WS013/19040KT
      TEMPO 2402/2404 3SM TSRA BR OVC025CB
     FM240400 18007KT 4SM RA BR OVC020 WS018/23040KT
     FM240900 18004KT 3SM -RA BR OVC014
     FM241300 VRB03KT 2SM -RA BR OVC007
     FM241600 03008KT 1 1/2SM RA BR OVC003=

USA.gov is the U.S. government's official web portal to all federal, state and local government web resources and services.